FNME

Menongue Airport

Menongue, Angola
TAF FNME 231030Z 2312/2324 09006KT CAVOK
Issued Valid From Valid To
Apr-23 @ 10:30 UTC
(13 hours ago)
Apr-23 @ 12:00 UTC
(11 hours ago)
Apr-24 @ 00:00 UTC
(in 52 minutes)
Apr-23 @ 12:00 to Apr-24 @ 00:00
TAF FNME 231030Z 2312/2324 09006KT CAVOK
Wind Visibility Clouds Conditions
90° at 6 knots 10,000+ meters
  • No significant clouds
TAF FNME 231030Z 2312/2324 09006KT CAVOK
Issued Apr-23 @ 10:30 UTC
(13 hours ago)
Valid From Apr-23 @ 12:00 UTC
(11 hours ago)
Valid To Apr-24 @ 00:00 UTC
(in 52 minutes)
Apr-23 @ 12:00 - Apr-24 @ 00:00
Wind Visibility
90° at 6 knots 10,000+ meters
Clouds
  • No significant clouds
Conditions